地図

経路データ

SID SEASON NUMBER BASIN SUBBASIN NAME ISO_TIME NATURE LAT LON WMO_WIND WMO_PRES WMO_AGENCY TRACK_TYPE DIST2LAND LANDFALL IFLAG USA_AGENCY USA_ATCF_ID USA_LAT USA_LON USA_RECORD USA_STATUS USA_WIND USA_PRES USA_SSHS USA_R34_NE USA_R34_SE USA_R34_SW USA_R34_NW USA_R50_NE USA_R50_SE USA_R50_SW USA_R50_NW USA_R64_NE USA_R64_SE USA_R64_SW USA_R64_NW USA_POCI USA_ROCI USA_RMW USA_EYE TOKYO_LAT TOKYO_LON TOKYO_GRADE TOKYO_WIND TOKYO_PRES TOKYO_R50_DIR TOKYO_R50_LONG TOKYO_R50_SHORT TOKYO_R30_DIR TOKYO_R30_LONG TOKYO_R30_SHORT TOKYO_LAND CMA_LAT CMA_LON CMA_CAT CMA_WIND CMA_PRES HKO_LAT HKO_LON HKO_CAT HKO_WIND HKO_PRES NEWDELHI_LAT NEWDELHI_LON NEWDELHI_GRADE NEWDELHI_WIND NEWDELHI_PRES NEWDELHI_CI NEWDELHI_DP NEWDELHI_POCI REUNION_LAT REUNION_LON REUNION_TYPE REUNION_WIND REUNION_PRES REUNION_TNUM REUNION_CI REUNION_RMW REUNION_R34_NE REUNION_R34_SE REUNION_R34_SW REUNION_R34_NW REUNION_R50_NE REUNION_R50_SE REUNION_R50_SW REUNION_R50_NW REUNION_R64_NE REUNION_R64_SE REUNION_R64_SW REUNION_R64_NW BOM_LAT BOM_LON BOM_TYPE BOM_WIND BOM_PRES BOM_TNUM BOM_CI BOM_RMW BOM_R34_NE BOM_R34_SE BOM_R34_SW BOM_R34_NW BOM_R50_NE BOM_R50_SE BOM_R50_SW BOM_R50_NW BOM_R64_NE BOM_R64_SE BOM_R64_SW BOM_R64_NW BOM_ROCI BOM_POCI BOM_EYE BOM_POS_METHOD BOM_PRES_METHOD NADI_LAT NADI_LON NADI_CAT NADI_WIND NADI_PRES WELLINGTON_LAT WELLINGTON_LON WELLINGTON_WIND WELLINGTON_PRES DS824_LAT DS824_LON DS824_STAGE DS824_WIND DS824_PRES TD9636_LAT TD9636_LON TD9636_STAGE TD9636_WIND TD9636_PRES TD9635_LAT TD9635_LON TD9635_WIND TD9635_PRES TD9635_ROCI NEUMANN_LAT NEUMANN_LON NEUMANN_CLASS NEUMANN_WIND NEUMANN_PRES MLC_LAT MLC_LON MLC_CLASS MLC_WIND MLC_PRES USA_GUST BOM_GUST BOM_GUST_PER REUNION_GUST REUNION_GUST_PER USA_SEAHGT USA_SEARAD_NE USA_SEARAD_SE USA_SEARAD_SW USA_SEARAD_NW STORM_SPEED STORM_DIR
1920356S13433 1921 58 SI MM NOT_NAMED 1920-12-20 18:00:00 NR -13.1000 72.5000 spur-merge 1759 1744 __________O___ -1 -13.1000 72.5000 7 3 232
1920356S13433 1921 58 SI MM NOT_NAMED 1920-12-20 21:00:00 NR -13.1808 72.3902 spur-merge 1744 1729 __________P___ -1 -13.1808 72.3902 7 3 235
1920356S13433 1921 58 SI MM NOT_NAMED 1920-12-21 00:00:00 NR -13.2794 72.2443 spur-merge 1720 1696 __________P___ -1 -13.2794 72.2443 7 4 237
1920356S13433 1921 58 SI MM NOT_NAMED 1920-12-21 03:00:00 NR -13.4133 72.0264 spur-merge 1696 1656 __________P___ -1 -13.4133 72.0264 7 6 239
1920356S13433 1921 58 SI MM NOT_NAMED 1920-12-21 06:00:00 NR -13.6000 71.7000 spur-merge 1656 1608 __________O___ -1 -13.6000 71.7000 7 9 240
1920356S13433 1921 58 SI MM NOT_NAMED 1920-12-21 09:00:00 NR -13.8503 71.2430 spur-merge 1593 1535 __________P___ -1 -13.8503 71.2430 7 11 241
1920356S13433 1921 58 SI MM NOT_NAMED 1920-12-21 12:00:00 NR -14.1483 70.6906 spur-merge 1535 1456 __________P___ -1 -14.1483 70.6906 7 13 241
1920356S13433 1921 58 SI MM NOT_NAMED 1920-12-21 15:00:00 NR -14.4721 70.0928 spur-merge 1456 1384 __________P___ -1 -14.4721 70.0928 7 13 241
1920356S13433 1921 58 SI MM NOT_NAMED 1920-12-21 18:00:00 NR -14.8000 69.5000 spur-merge 1384 1320 __________O___ -1 -14.8000 69.5000 7 12 240
1920356S13433 1921 58 SI MM NOT_NAMED 1920-12-21 21:00:00 NR -15.0748 69.0047 spur-merge 1320 1263 __________P___ -1 -15.0748 69.0047 7 11 240
1920356S13433 1921 58 SI MM NOT_NAMED 1920-12-22 00:00:00 NR -15.3538 68.5206 spur-merge 1257 1209 __________P___ -1 -15.3538 68.5206 7 11 238
1920356S13433 1921 58 SI MM NOT_NAMED 1920-12-22 03:00:00 NR -15.6560 68.0263 spur-merge 1194 1131 __________P___ -1 -15.6560 68.0263 7 12 237
1920356S13433 1921 58 SI MM NOT_NAMED 1920-12-22 06:00:00 NR -16.0000 67.5000 spur-merge 1131 1054 __________O___ -1 -16.0000 67.5000 7 13 235
1920356S13433 1921 58 SI MM NOT_NAMED 1920-12-22 09:00:00 NR -16.4029 66.9029 spur-merge 1054 977 __________P___ -1 -16.4029 66.9029 7 15 234
1920356S13433 1921 58 SI MM NOT_NAMED 1920-12-22 12:00:00 NR -16.8477 66.2725 spur-merge 977 896 __________P___ -1 -16.8477 66.2725 7 15 233
1920356S13433 1921 58 SI MM NOT_NAMED 1920-12-22 15:00:00 NR -17.3185 65.6308 spur-merge 886 806 __________P___ -1 -17.3185 65.6308 7 15 232
1920356S13433 1921 58 SI MM NOT_NAMED 1920-12-22 18:00:00 NR -17.8000 65.0000 spur-merge 806 727 __________O___ -1 -17.8000 65.0000 7 16 232
1920356S13433 1921 58 SI MM NOT_NAMED 1920-12-22 21:00:00 NR -18.2968 64.3146 spur-merge 717 640 __________P___ -1 -18.2968 64.3146 7 16 232
1920356S13433 1921 58 SI MM NOT_NAMED 1920-12-23 00:00:00 NR -18.7960 63.6573 spur-merge 640 568 __________P___ -1 -18.7960 63.6573 7 15 230
1920356S13433 1921 58 SI MM NOT_NAMED 1920-12-23 03:00:00 NR -19.2720 63.0961 spur-merge 565 516 __________P___ -1 -19.2720 63.0961 7 13 225
1920356S13433 1921 58 SI MM NOT_NAMED 1920-12-23 06:00:00 NR -19.7000 62.7000 spur-merge 516 490 __________O___ -1 -19.7000 62.7000 7 10 214
1920356S13433 1921 58 SI MM NOT_NAMED 1920-12-23 09:00:00 NR -20.0774 62.5180 spur-merge 490 490 __________P___ -1 -20.0774 62.5180 7 7 194
1920356S13433 1921 58 SI MM NOT_NAMED 1920-12-23 12:00:00 NR -20.4035 62.5077 spur-merge 490 490 __________P___ -1 -20.4035 62.5077 7 6 171
1920356S13433 1921 58 SI MM NOT_NAMED 1920-12-23 15:00:00 NR -20.6779 62.6186 spur-merge 501 501 __________P___ -1 -20.6779 62.6186 7 6 151
1920356S13433 1921 58 SI MM NOT_NAMED 1920-12-23 18:00:00 NR -20.9000 62.8000 spur-merge 524 524 __________O___ -1 -20.9000 62.8000 7 5 137
1920356S13433 1921 58 SI MM NOT_NAMED 1920-12-23 21:00:00 NR -21.0715 63.0083 spur-merge 548 548 __________P___ -1 -21.0715 63.0083 7 5 127
1920356S13433 1921 58 SI MM NOT_NAMED 1920-12-24 00:00:00 NR -21.2033 63.2308 spur-merge 570 570 __________P___ -1 -21.2033 63.2308 7 5 119
1920356S13433 1921 58 SI MM NOT_NAMED 1920-12-24 03:00:00 NR -21.3084 63.4630 spur-merge 602 602 __________P___ -1 -21.3084 63.4630 7 5 114
1920356S13433 1921 58 SI MM NOT_NAMED 1920-12-24 06:00:00 NR -21.4000 63.7000 spur-merge 625 __________O___ -1 -21.4000 63.7000 7 5 113

IBTrACS Databaseについて

本データベースは、米国NOAAが公開する1842年以降の世界の熱帯低気圧のベストトラックデータアーカイブInternational Best Track Archive for Climate Stewardship (IBTrACS)を、ウェブで閲覧しやすい形式に変換したものです。

最終更新日:2021-11-26